Time;durP1;ratioP1;P1;durP2;ratioP2;P2;SDS_P1;SDS_P2;PMS_P1;PMS_P2;Temp;Humidity;BMP_temperature;BMP_pressure;BME280_temperature;BME280_humidity;BME280_pressure;Samples;Min_cycle;Max_cycle;Signal;HPM_P1;HPM_P2
2023/06/06 00:01:25;;;;;;;6.53;3.95;;;23.70;53.40;;;;;;6182075;28;81334;-69
2023/06/06 00:04:27;;;;;;;7.65;3.67;;;23.80;53.40;;;;;;6194109;28;82223;-68
2023/06/06 00:07:28;;;;;;;4.05;2.92;;;23.70;53.40;;;;;;6204202;28;80004;-69
2023/06/06 00:10:29;;;;;;;5.60;3.00;;;23.70;53.40;;;;;;6203377;28;82190;-66
2023/06/06 00:13:32;;;;;;;7.53;3.40;;;23.70;53.40;;;;;;6203083;28;80865;-67
2023/06/06 00:16:34;;;;;;;4.32;3.03;;;23.70;53.40;;;;;;6203401;28;80949;-67
2023/06/06 00:19:35;;;;;;;5.60;3.10;;;23.70;53.50;;;;;;6204908;28;80402;-69
2023/06/06 00:22:36;;;;;;;5.28;3.47;;;23.70;53.50;;;;;;6204765;28;80592;-68
2023/06/06 00:25:37;;;;;;;6.13;3.50;;;23.70;53.50;;;;;;6204384;28;81586;-67
2023/06/06 00:28:37;;;;;;;6.32;3.22;;;23.70;53.50;;;;;;6203490;28;80882;-67
2023/06/06 00:31:38;;;;;;;5.65;3.00;;;23.70;53.50;;;;;;6202554;28;81363;-69
2023/06/06 00:34:38;;;;;;;5.53;3.50;;;23.70;53.40;;;;;;6196863;28;80545;-66
2023/06/06 00:37:39;;;;;;;4.30;2.85;;;23.70;53.50;;;;;;6202352;28;82594;-68
2023/06/06 00:40:40;;;;;;;4.07;2.80;;;23.60;53.40;;;;;;6202752;28;81550;-66
2023/06/06 00:43:41;;;;;;;4.90;3.53;;;23.70;53.40;;;;;;6197653;28;80750;-68
2023/06/06 00:46:42;;;;;;;4.15;2.60;;;23.60;53.30;;;;;;6199822;28;81712;-65
2023/06/06 00:49:42;;;;;;;6.30;2.72;;;23.60;53.30;;;;;;6200729;28;80414;-68
2023/06/06 00:52:46;;;;;;;4.47;2.85;;;23.70;53.30;;;;;;6185204;28;80463;-65
2023/06/06 00:55:46;;;;;;;3.70;3.05;;;23.60;53.20;;;;;;6201917;28;80464;-66
2023/06/06 00:58:47;;;;;;;5.53;2.90;;;23.70;53.30;;;;;;6183826;28;82078;-69
2023/06/06 01:01:48;;;;;;;5.80;2.50;;;23.60;53.20;;;;;;6202018;28;80754;-69
2023/06/06 01:04:50;;;;;;;5.30;3.10;;;23.60;53.20;;;;;;6184015;28;83055;-67
2023/06/06 01:07:53;;;;;;;4.03;2.47;;;23.60;53.20;;;;;;6184706;28;82142;-67
2023/06/06 01:10:55;;;;;;;5.40;3.50;;;23.60;53.20;;;;;;6185228;28;80303;-70
2023/06/06 01:13:56;;;;;;;3.90;2.55;;;23.60;53.20;;;;;;6164555;28;82695;-69
2023/06/06 01:16:57;;;;;;;3.10;2.55;;;23.60;53.10;;;;;;6179123;28;80304;-69
2023/06/06 01:20:00;;;;;;;4.28;3.03;;;23.60;53.20;;;;;;6162730;28;83294;-69
2023/06/06 01:23:01;;;;;;;3.88;2.83;;;23.70;53.00;;;;;;6191192;28;80550;-68
2023/06/06 01:26:05;;;;;;;3.85;2.75;;;23.60;53.00;;;;;;6197723;28;80864;-69
2023/06/06 01:29:06;;;;;;;4.28;2.95;;;23.60;52.90;;;;;;6172124;28;81461;-70
2023/06/06 01:32:06;;;;;;;4.28;3.22;;;23.60;53.00;;;;;;6185342;28;80650;-68
2023/06/06 01:35:07;;;;;;;5.72;2.83;;;23.60;53.00;;;;;;6168549;28;83427;-68
2023/06/06 01:38:07;;;;;;;5.15;2.78;;;23.70;53.10;;;;;;6186750;28;80487;-68
2023/06/06 01:41:08;;;;;;;4.47;2.58;;;23.60;53.00;;;;;;6178106;28;80427;-68
2023/06/06 01:44:09;;;;;;;5.20;2.70;;;23.60;53.00;;;;;;6180325;28;80633;-68
2023/06/06 01:47:09;;;;;;;4.45;2.53;;;23.60;53.00;;;;;;6194903;28;80516;-76
2023/06/06 01:50:11;;;;;;;4.05;2.60;;;23.60;53.00;;;;;;6202279;28;80360;-78
2023/06/06 01:53:11;;;;;;;3.08;2.47;;;23.60;53.00;;;;;;6203533;28;83148;-74
2023/06/06 01:56:13;;;;;;;4.30;2.67;;;23.60;53.00;;;;;;6202368;28;80687;-79
2023/06/06 01:59:14;;;;;;;3.50;2.42;;;23.60;52.90;;;;;;6189429;28;83310;-75
2023/06/06 02:02:17;;;;;;;3.13;2.33;;;23.60;52.90;;;;;;6175000;28;87626;-73
2023/06/06 02:05:19;;;;;;;4.55;2.55;;;23.60;52.90;;;;;;6200203;28;80847;-72
2023/06/06 02:08:21;;;;;;;3.63;2.58;;;23.60;52.90;;;;;;6182895;28;82210;-67
2023/06/06 02:11:23;;;;;;;3.15;2.60;;;23.60;53.00;;;;;;6174425;28;87232;-69
2023/06/06 02:14:24;;;;;;;6.35;2.88;;;23.60;52.90;;;;;;6196057;28;81655;-69
2023/06/06 02:17:24;;;;;;;3.25;2.42;;;23.60;52.80;;;;;;6201190;28;81309;-67
2023/06/06 02:20:27;;;;;;;4.40;2.30;;;23.60;52.90;;;;;;6189547;28;83378;-68
2023/06/06 02:23:27;;;;;;;3.25;2.45;;;23.60;52.70;;;;;;6183473;28;83082;-70
2023/06/06 02:26:28;;;;;;;3.80;2.38;;;23.60;52.70;;;;;;6199515;28;82202;-68
2023/06/06 02:29:29;;;;;;;3.65;2.20;;;23.60;52.70;;;;;;6180392;28;84281;-68
2023/06/06 02:32:30;;;;;;;4.43;2.70;;;23.60;52.60;;;;;;6174685;28;82842;-70
2023/06/06 02:35:30;;;;;;;5.35;3.00;;;23.60;52.60;;;;;;6158960;28;83608;-66
2023/06/06 02:38:31;;;;;;;3.42;2.33;;;23.60;52.60;;;;;;6179670;28;81456;-69
2023/06/06 02:41:31;;;;;;;4.22;2.45;;;23.60;52.60;;;;;;6181227;28;80389;-69
2023/06/06 02:44:32;;;;;;;3.88;2.70;;;23.60;52.50;;;;;;6192453;28;81540;-67
2023/06/06 02:47:32;;;;;;;2.90;2.30;;;23.50;52.50;;;;;;6178665;28;80496;-67
2023/06/06 02:50:33;;;;;;;4.30;2.42;;;23.50;52.50;;;;;;6190539;28;80244;-66
2023/06/06 02:53:34;;;;;;;8.98;2.63;;;23.50;52.50;;;;;;6172341;28;83453;-66
2023/06/06 02:56:35;;;;;;;6.20;2.30;;;23.60;52.50;;;;;;6181490;28;81980;-65
2023/06/06 02:59:36;;;;;;;5.82;3.45;;;23.50;52.50;;;;;;6178826;28;83234;-68
2023/06/06 03:02:36;;;;;;;6.90;2.25;;;23.50;52.40;;;;;;6177513;28;81544;-62
2023/06/06 03:05:37;;;;;;;3.85;2.45;;;23.60;52.30;;;;;;6178927;28;81256;-66
2023/06/06 03:08:38;;;;;;;4.15;2.40;;;23.50;52.30;;;;;;6196844;28;81315;-66
2023/06/06 03:11:38;;;;;;;3.22;2.30;;;23.60;52.40;;;;;;6185000;28;82628;-66
2023/06/06 03:14:39;;;;;;;6.13;2.67;;;23.60;52.40;;;;;;6185642;28;81589;-67
2023/06/06 03:17:40;;;;;;;4.40;2.10;;;23.60;52.50;;;;;;6191232;28;81396;-69
2023/06/06 03:20:41;;;;;;;7.00;2.83;;;23.50;52.40;;;;;;6185733;28;84139;-69
2023/06/06 03:23:46;;;;;;;3.93;2.60;;;23.50;52.40;;;;;;6179682;28;83944;-73
2023/06/06 03:26:48;;;;;;;3.88;2.67;;;23.50;52.40;;;;;;6185790;28;83520;-71
2023/06/06 03:29:52;;;;;;;4.95;2.78;;;23.50;52.40;;;;;;6190584;28;82498;-69
2023/06/06 03:32:55;;;;;;;3.33;2.50;;;23.50;52.20;;;;;;6186471;28;82591;-69
2023/06/06 03:35:57;;;;;;;4.72;2.65;;;23.50;52.10;;;;;;6186122;28;83144;-67
2023/06/06 03:38:58;;;;;;;4.88;2.63;;;23.50;52.00;;;;;;6185263;28;83307;-71
2023/06/06 03:41:59;;;;;;;4.43;3.25;;;23.50;51.90;;;;;;6186099;28;83513;-69
2023/06/06 03:45:00;;;;;;;6.82;2.70;;;23.50;51.80;;;;;;6177038;28;83626;-70
2023/06/06 03:48:02;;;;;;;4.43;2.40;;;23.50;51.80;;;;;;6178700;28;83111;-72
2023/06/06 03:51:03;;;;;;;4.20;2.40;;;23.50;51.80;;;;;;6178027;28;83538;-71
2023/06/06 03:54:04;;;;;;;9.23;3.22;;;23.50;52.00;;;;;;6191621;28;83454;-77
2023/06/06 03:57:05;;;;;;;7.93;3.08;;;23.50;52.00;;;;;;6178094;28;83156;-68
2023/06/06 04:00:13;;;;;;;6.57;3.40;;;23.50;52.10;;;;;;6176767;28;81738;-64
2023/06/06 04:03:13;;;;;;;4.75;2.75;;;23.50;52.00;;;;;;6194506;28;80353;-67
2023/06/06 04:06:14;;;;;;;9.65;3.22;;;23.60;52.00;;;;;;6199475;28;80366;-67
2023/06/06 04:09:16;;;;;;;3.97;2.80;;;23.50;52.10;;;;;;6199062;28;80446;-72
2023/06/06 04:12:17;;;;;;;5.22;2.60;;;23.60;52.10;;;;;;6177143;28;80874;-77
2023/06/06 04:15:17;;;;;;;5.32;2.75;;;23.50;51.90;;;;;;6164241;28;81439;-69
2023/06/06 04:18:18;;;;;;;7.18;2.75;;;23.60;52.00;;;;;;6179144;28;84517;-63
2023/06/06 04:21:19;;;;;;;6.18;2.63;;;23.60;52.30;;;;;;6194102;28;82291;-61
2023/06/06 04:24:20;;;;;;;5.70;2.67;;;23.50;52.30;;;;;;6189535;28;82191;-65
2023/06/06 04:27:23;;;;;;;5.15;2.45;;;23.60;53.10;;;;;;6190957;28;80280;-63
2023/06/06 04:30:24;;;;;;;20.20;2.92;;;23.60;53.20;;;;;;6195733;28;83017;-62
2023/06/06 04:33:30;;;;;;;6.10;2.50;;;23.70;53.40;;;;;;6177744;28;82176;-63
2023/06/06 04:36:33;;;;;;;3.90;2.35;;;23.70;54.00;;;;;;6175192;28;82417;-69
2023/06/06 04:39:34;;;;;;;4.55;2.50;;;23.70;53.90;;;;;;6189152;28;82892;-62
2023/06/06 04:42:35;;;;;;;7.13;2.50;;;23.70;54.10;;;;;;6168107;28;83703;-61
2023/06/06 04:45:38;;;;;;;12.57;3.15;;;23.70;53.80;;;;;;6190588;28;80664;-63
2023/06/06 04:48:38;;;;;;;16.02;2.60;;;23.70;53.90;;;;;;6182028;28;83641;-67
2023/06/06 04:51:40;;;;;;;10.07;2.90;;;23.70;54.10;;;;;;6179829;28;83721;-65
2023/06/06 04:54:41;;;;;;;11.88;2.83;;;23.80;53.80;;;;;;6198993;28;80488;-63
2023/06/06 04:57:44;;;;;;;10.20;3.08;;;23.80;53.50;;;;;;6199608;28;80302;-66
2023/06/06 05:00:47;;;;;;;6.78;2.95;;;23.80;54.00;;;;;;6196053;28;80465;-67
2023/06/06 05:03:48;;;;;;;6.28;2.83;;;23.80;52.90;;;;;;6197657;28;80956;-63
2023/06/06 05:06:48;;;;;;;7.30;2.63;;;23.70;52.00;;;;;;6198768;28;80946;-68
2023/06/06 05:09:49;;;;;;;9.05;3.92;;;23.70;51.20;;;;;;6098626;28;82336;-71
2023/06/06 05:12:49;;;;;;;8.90;2.95;;;23.60;50.80;;;;;;6033777;28;83147;-68
2023/06/06 05:15:50;;;;;;;6.50;3.40;;;23.60;50.60;;;;;;6100304;28;82395;-70
2023/06/06 05:18:50;;;;;;;8.70;3.42;;;23.60;50.40;;;;;;6182214;28;82220;-71
2023/06/06 05:21:51;;;;;;;10.93;3.40;;;23.60;49.90;;;;;;6183705;28;80249;-62
2023/06/06 05:24:51;;;;;;;12.57;4.22;;;23.50;49.60;;;;;;6194054;28;80599;-68
2023/06/06 05:27:52;;;;;;;12.00;4.25;;;23.50;49.40;;;;;;6200210;28;80962;-66
2023/06/06 05:30:52;;;;;;;9.20;3.75;;;23.60;49.40;;;;;;6201574;28;81917;-66
2023/06/06 05:33:53;;;;;;;9.45;4.03;;;23.50;49.50;;;;;;6193940;28;80549;-66
2023/06/06 05:36:54;;;;;;;7.97;3.70;;;23.60;49.40;;;;;;6187496;28;80286;-65
2023/06/06 05:39:54;;;;;;;10.88;3.83;;;23.50;49.10;;;;;;6195099;28;80792;-67
2023/06/06 05:42:55;;;;;;;6.20;3.55;;;23.50;49.20;;;;;;6196087;28;80895;-66
2023/06/06 05:45:56;;;;;;;8.32;3.80;;;23.50;49.30;;;;;;6167755;28;81821;-67
2023/06/06 05:48:57;;;;;;;11.98;3.83;;;23.50;49.40;;;;;;6196751;28;80763;-67
2023/06/06 05:51:57;;;;;;;9.05;4.60;;;23.50;49.10;;;;;;6189643;28;80389;-66
2023/06/06 05:54:57;;;;;;;7.40;4.38;;;23.50;48.90;;;;;;6189173;28;81110;-66
2023/06/06 05:57:58;;;;;;;10.90;4.57;;;23.50;48.80;;;;;;6188471;28;80806;-66
2023/06/06 06:01:00;;;;;;;7.25;3.75;;;23.50;48.70;;;;;;6188198;28;80818;-67
2023/06/06 06:04:00;;;;;;;8.13;4.65;;;23.50;48.70;;;;;;6195506;28;87384;-68
2023/06/06 06:07:02;;;;;;;6.85;4.10;;;23.50;48.90;;;;;;6191582;28;80390;-67
2023/06/06 06:10:02;;;;;;;8.90;4.85;;;23.50;48.90;;;;;;6189040;28;81021;-67
2023/06/06 06:13:03;;;;;;;11.68;3.88;;;23.50;48.80;;;;;;6186901;28;80787;-67
2023/06/06 06:16:03;;;;;;;10.82;4.13;;;23.50;48.70;;;;;;6184202;28;80873;-67
2023/06/06 06:19:05;;;;;;;11.57;4.30;;;23.50;48.80;;;;;;6195920;28;80546;-66
2023/06/06 06:22:06;;;;;;;10.88;4.15;;;23.50;48.80;;;;;;6199375;28;81542;-67
2023/06/06 06:25:08;;;;;;;8.43;4.10;;;23.50;49.00;;;;;;6190512;28;80988;-67
2023/06/06 06:28:08;;;;;;;9.60;4.38;;;23.50;49.00;;;;;;6190287;28;81568;-66
2023/06/06 06:31:09;;;;;;;11.52;4.10;;;23.50;49.10;;;;;;6178063;28;81999;-67
2023/06/06 06:34:10;;;;;;;9.77;4.15;;;23.50;49.20;;;;;;6168327;28;83820;-66
2023/06/06 06:37:10;;;;;;;8.70;3.83;;;23.50;49.20;;;;;;6180729;28;82400;-65
2023/06/06 06:40:12;;;;;;;8.60;4.00;;;23.50;49.20;;;;;;6178877;28;83403;-66
2023/06/06 06:43:14;;;;;;;13.30;4.25;;;23.50;49.10;;;;;;6182875;28;80500;-61
2023/06/06 06:46:22;;;;;;;7.28;4.10;;;23.50;49.10;;;;;;6174180;28;81642;-63
2023/06/06 06:49:22;;;;;;;7.53;4.05;;;23.50;49.20;;;;;;6182840;28;80602;-65
2023/06/06 06:52:23;;;;;;;9.13;4.03;;;23.50;49.60;;;;;;6192673;28;80705;-65
2023/06/06 06:55:26;;;;;;;8.80;4.00;;;23.50;49.60;;;;;;6202717;28;80901;-64
2023/06/06 06:58:33;;;;;;;6.80;4.60;;;23.50;49.70;;;;;;6200050;28;80350;-65
2023/06/06 07:01:34;;;;;;;8.43;4.05;;;23.50;49.70;;;;;;6197793;28;81040;-66
2023/06/06 07:04:36;;;;;;;8.02;3.42;;;23.60;49.90;;;;;;6193842;28;82685;-64
2023/06/06 07:07:37;;;;;;;8.32;3.20;;;23.60;50.00;;;;;;6191575;28;80727;-65
2023/06/06 07:10:37;;;;;;;6.40;4.05;;;23.60;50.10;;;;;;6195492;28;81379;-65
2023/06/06 07:13:38;;;;;;;9.15;4.07;;;23.60;50.20;;;;;;6198860;28;80429;-64
2023/06/06 07:16:39;;;;;;;10.02;4.25;;;23.60;50.20;;;;;;6204982;28;80673;-65
2023/06/06 07:19:39;;;;;;;6.25;4.07;;;23.60;50.20;;;;;;6185169;28;81771;-66
2023/06/06 07:22:40;;;;;;;8.30;3.78;;;23.60;50.30;;;;;;6203867;28;82847;-66
2023/06/06 07:25:43;;;;;;;9.10;3.40;;;23.60;50.30;;;;;;6202094;28;81552;-65
2023/06/06 07:28:45;;;;;;;4.55;3.05;;;23.60;50.30;;;;;;6203055;28;80787;-64
2023/06/06 07:31:45;;;;;;;7.82;3.70;;;23.60;50.50;;;;;;6203419;28;80726;-65
2023/06/06 07:34:46;;;;;;;6.60;3.83;;;23.60;50.40;;;;;;6204573;28;87888;-65
2023/06/06 07:37:46;;;;;;;7.65;3.70;;;23.60;50.40;;;;;;6204334;28;82603;-65
2023/06/06 07:40:47;;;;;;;9.05;3.22;;;23.60;50.50;;;;;;6204626;28;80571;-65
2023/06/06 07:43:47;;;;;;;6.03;3.60;;;23.60;50.60;;;;;;6201423;28;82227;-64
2023/06/06 07:46:48;;;;;;;10.98;3.90;;;23.60;50.60;;;;;;6197528;28;80833;-64
2023/06/06 07:49:50;;;;;;;11.20;4.40;;;23.70;50.70;;;;;;6203758;28;80565;-65
2023/06/06 07:52:50;;;;;;;8.20;3.78;;;23.70;50.70;;;;;;6203047;28;80315;-65
2023/06/06 07:55:51;;;;;;;7.20;3.63;;;23.70;50.80;;;;;;6203499;28;81073;-69
2023/06/06 07:58:53;;;;;;;7.30;4.35;;;23.70;50.90;;;;;;6204590;28;80275;-70
2023/06/06 08:01:53;;;;;;;8.38;3.60;;;23.70;50.90;;;;;;6203788;28;81483;-67
2023/06/06 08:04:54;;;;;;;10.77;3.88;;;23.70;50.80;;;;;;6184880;28;80879;-67
2023/06/06 08:07:54;;;;;;;9.13;3.97;;;23.70;50.90;;;;;;6199657;28;80715;-67
2023/06/06 08:10:55;;;;;;;8.93;4.18;;;23.70;51.10;;;;;;6204111;28;80860;-67
2023/06/06 08:13:55;;;;;;;12.05;4.93;;;23.70;50.70;;;;;;6200205;28;80548;-65
2023/06/06 08:16:56;;;;;;;8.25;3.60;;;23.80;50.80;;;;;;6192441;28;80442;-65
2023/06/06 08:19:56;;;;;;;8.70;3.35;;;23.70;50.80;;;;;;6193847;28;80451;-68
2023/06/06 08:22:57;;;;;;;10.15;4.70;;;23.80;51.00;;;;;;6190220;28;80770;-68
2023/06/06 08:25:58;;;;;;;8.02;3.70;;;23.80;51.10;;;;;;6189435;28;81239;-67
2023/06/06 08:28:58;;;;;;;5.05;3.75;;;23.70;51.10;;;;;;6203873;28;80466;-71
2023/06/06 08:32:01;;;;;;;13.63;4.20;;;23.80;51.10;;;;;;6198583;28;81211;-66
2023/06/06 08:35:03;;;;;;;8.13;4.13;;;23.80;51.10;;;;;;6196517;28;80536;-64
2023/06/06 08:38:03;;;;;;;5.38;3.13;;;23.90;51.20;;;;;;6192723;28;81138;-63
2023/06/06 08:41:04;;;;;;;7.68;3.95;;;23.90;51.00;;;;;;6194186;28;81096;-63
2023/06/06 08:44:04;;;;;;;9.45;3.90;;;23.90;51.20;;;;;;6189503;28;80276;-63
2023/06/06 08:47:05;;;;;;;7.80;3.53;;;23.90;51.20;;;;;;6194255;28;81207;-63
2023/06/06 08:50:07;;;;;;;9.90;4.07;;;24.00;51.40;;;;;;6197439;28;82166;-62
2023/06/06 08:53:07;;;;;;;8.10;4.63;;;24.00;51.20;;;;;;6196985;28;81657;-64
2023/06/06 08:56:08;;;;;;;6.47;3.85;;;24.00;51.30;;;;;;6182036;28;80533;-62
2023/06/06 08:59:08;;;;;;;7.45;4.30;;;24.00;51.50;;;;;;6191447;28;80839;-63
2023/06/06 09:02:09;;;;;;;9.45;4.50;;;24.00;51.50;;;;;;6182324;28;80490;-62
2023/06/06 09:05:11;;;;;;;7.05;3.65;;;24.00;51.30;;;;;;6188243;28;81827;-62
2023/06/06 09:08:12;;;;;;;12.93;3.83;;;24.00;51.40;;;;;;6185145;28;80355;-64
2023/06/06 09:11:12;;;;;;;8.93;3.95;;;24.00;51.60;;;;;;6197893;28;86362;-63
2023/06/06 09:14:13;;;;;;;6.13;3.97;;;23.90;51.70;;;;;;6202485;28;80589;-62
2023/06/06 09:17:13;;;;;;;10.82;4.28;;;23.90;51.60;;;;;;6201264;28;80391;-63
2023/06/06 09:20:14;;;;;;;7.85;3.63;;;23.90;51.70;;;;;;6184106;28;81747;-62
2023/06/06 09:23:16;;;;;;;9.27;4.40;;;24.00;51.70;;;;;;6175247;28;82919;-63
2023/06/06 09:26:17;;;;;;;8.82;4.30;;;23.90;51.80;;;;;;6188086;28;81093;-63
2023/06/06 09:29:17;;;;;;;4.88;3.53;;;23.90;51.90;;;;;;6189036;28;80550;-62
2023/06/06 09:32:18;;;;;;;5.18;3.92;;;24.00;51.70;;;;;;6184206;28;80418;-63
2023/06/06 09:35:18;;;;;;;8.85;4.15;;;24.00;52.00;;;;;;6190902;28;80648;-63
2023/06/06 09:38:19;;;;;;;7.35;3.60;;;23.90;52.30;;;;;;6184766;28;80900;-63
2023/06/06 09:41:20;;;;;;;8.75;4.20;;;23.90;52.00;;;;;;6177516;28;80476;-63
2023/06/06 09:44:20;;;;;;;7.95;4.10;;;23.90;51.90;;;;;;6175842;28;81775;-64
2023/06/06 09:47:21;;;;;;;10.68;4.50;;;23.90;51.90;;;;;;6177348;28;80848;-64
2023/06/06 09:50:21;;;;;;;10.40;4.80;;;23.90;52.00;;;;;;6187559;28;82655;-63
2023/06/06 09:53:23;;;;;;;16.98;4.82;;;23.90;52.00;;;;;;6182449;28;84848;-64
2023/06/06 09:56:24;;;;;;;11.20;3.78;;;23.90;52.00;;;;;;6181541;28;80967;-64
2023/06/06 09:59:25;;;;;;;6.82;4.50;;;23.80;52.20;;;;;;6198482;28;80661;-62
2023/06/06 10:02:25;;;;;;;17.45;4.35;;;23.80;52.20;;;;;;6178507;28;80463;-62
2023/06/06 10:05:26;;;;;;;10.88;4.90;;;23.80;52.20;;;;;;6189697;28;80292;-63
2023/06/06 10:08:26;;;;;;;13.27;4.63;;;23.80;52.50;;;;;;6177484;28;80949;-63
2023/06/06 10:11:27;;;;;;;7.93;4.18;;;23.80;52.60;;;;;;6198130;28;80744;-63
2023/06/06 10:14:28;;;;;;;10.65;4.47;;;23.80;52.50;;;;;;6191182;28;82404;-64
2023/06/06 10:17:28;;;;;;;9.57;4.47;;;23.80;52.90;;;;;;6190109;28;81197;-64
2023/06/06 10:20:30;;;;;;;14.20;6.43;;;23.80;53.10;;;;;;6188486;28;81839;-63
2023/06/06 10:23:30;;;;;;;17.35;6.35;;;23.80;53.40;;;;;;6172376;28;82854;-69
2023/06/06 10:26:30;;;;;;;15.02;6.03;;;23.80;53.50;;;;;;6186131;28;80200;-66
2023/06/06 10:29:31;;;;;;;19.88;6.20;;;23.80;53.30;;;;;;6186845;28;80202;-66
2023/06/06 10:32:31;;;;;;;19.33;6.38;;;23.80;53.20;;;;;;6198382;28;80731;-68
2023/06/06 10:35:33;;;;;;;16.48;6.78;;;23.80;53.50;;;;;;6175137;28;83495;-67
2023/06/06 10:38:34;;;;;;;13.38;6.22;;;23.80;53.50;;;;;;6198212;28;80795;-69
2023/06/06 10:41:34;;;;;;;19.55;5.75;;;23.90;53.90;;;;;;6175481;28;80206;-67
2023/06/06 10:44:38;;;;;;;13.73;5.97;;;23.80;53.80;;;;;;6200636;28;80963;-67
2023/06/06 10:47:38;;;;;;;15.85;6.07;;;23.90;53.80;;;;;;6188775;28;82540;-67
2023/06/06 10:50:39;;;;;;;14.68;5.90;;;23.80;53.80;;;;;;6176185;28;83391;-68
2023/06/06 10:53:39;;;;;;;12.27;6.07;;;23.80;53.80;;;;;;6197003;28;82139;-68
2023/06/06 10:56:40;;;;;;;9.23;5.55;;;23.90;54.00;;;;;;6190891;28;80586;-70
2023/06/06 10:59:41;;;;;;;11.00;5.85;;;23.90;54.30;;;;;;6184173;28;81612;-63
2023/06/06 11:02:42;;;;;;;13.18;5.70;;;23.80;54.10;;;;;;6177804;28;80119;-65
2023/06/06 11:05:42;;;;;;;13.63;5.85;;;23.90;53.90;;;;;;6169593;28;81725;-64
2023/06/06 11:08:43;;;;;;;12.25;5.47;;;23.90;54.10;;;;;;6176062;28;81143;-62
2023/06/06 11:11:43;;;;;;;10.45;5.63;;;23.90;54.10;;;;;;6183918;28;80875;-62
2023/06/06 11:14:44;;;;;;;12.65;5.32;;;23.90;54.60;;;;;;6171483;28;80573;-62
2023/06/06 11:17:45;;;;;;;12.75;6.78;;;23.80;54.90;;;;;;6184058;28;82104;-63
2023/06/06 11:20:45;;;;;;;11.52;5.60;;;23.80;55.00;;;;;;6191026;28;80913;-62
2023/06/06 11:23:45;;;;;;;19.13;6.30;;;23.80;55.20;;;;;;6173542;28;81014;-63
2023/06/06 11:26:46;;;;;;;10.48;5.50;;;23.80;55.50;;;;;;6175649;28;80456;-63
2023/06/06 11:29:46;;;;;;;11.75;5.93;;;23.80;55.70;;;;;;6187259;28;80883;-62
2023/06/06 11:32:47;;;;;;;13.98;5.70;;;23.80;55.80;;;;;;6186032;28;80522;-63
2023/06/06 11:35:47;;;;;;;11.63;5.97;;;23.80;56.00;;;;;;6179068;28;80787;-67
2023/06/06 11:38:48;;;;;;;12.43;6.07;;;23.80;55.80;;;;;;6189497;28;80575;-66
2023/06/06 11:41:51;;;;;;;8.43;5.18;;;23.80;56.30;;;;;;6185317;28;80994;-65
2023/06/06 11:44:52;;;;;;;14.07;5.65;;;23.80;56.00;;;;;;6193509;28;79945;-66
2023/06/06 11:47:52;;;;;;;9.38;5.82;;;23.80;56.10;;;;;;6193853;28;80443;-67
2023/06/06 11:50:53;;;;;;;10.82;5.75;;;23.80;56.00;;;;;;6193450;28;81026;-65
2023/06/06 11:53:53;;;;;;;9.10;5.13;;;23.80;56.40;;;;;;6193802;28;80467;-67
2023/06/06 11:56:55;;;;;;;8.95;5.20;;;23.80;56.60;;;;;;6202221;28;82127;-69
2023/06/06 11:59:59;;;;;;;10.50;5.60;;;23.80;56.30;;;;;;6190780;28;82075;-67
2023/06/06 12:02:59;;;;;;;9.05;5.35;;;23.80;56.60;;;;;;6186918;28;80406;-67
2023/06/06 12:06:00;;;;;;;9.48;5.20;;;23.80;56.70;;;;;;6185732;28;80976;-66
2023/06/06 12:09:00;;;;;;;11.27;6.05;;;23.80;56.50;;;;;;6204603;28;80331;-67
2023/06/06 12:12:01;;;;;;;10.02;5.28;;;23.80;56.90;;;;;;6202320;28;81861;-67
2023/06/06 12:15:02;;;;;;;10.52;5.43;;;23.80;57.10;;;;;;6193485;28;80476;-65
2023/06/06 12:18:02;;;;;;;9.18;5.32;;;23.80;57.40;;;;;;6193447;28;83262;-66
2023/06/06 12:21:03;;;;;;;11.52;5.60;;;23.90;57.50;;;;;;6171886;28;81201;-65
2023/06/06 12:24:03;;;;;;;12.57;5.65;;;23.90;57.20;;;;;;6169817;28;82802;-66
2023/06/06 12:27:04;;;;;;;8.63;5.57;;;23.80;57.00;;;;;;6192398;28;81637;-69
2023/06/06 12:30:05;;;;;;;11.52;5.10;;;23.80;57.20;;;;;;6200267;28;81411;-67
2023/06/06 12:33:06;;;;;;;9.90;5.55;;;23.90;56.80;;;;;;6199907;28;80555;-67
2023/06/06 12:36:07;;;;;;;9.32;5.13;;;23.90;57.80;;;;;;6190881;28;83673;-66
2023/06/06 12:39:08;;;;;;;10.23;5.28;;;23.90;57.10;;;;;;6200639;28;80588;-67
2023/06/06 12:42:08;;;;;;;8.00;4.82;;;23.90;56.90;;;;;;6195426;28;84848;-67
2023/06/06 12:45:09;;;;;;;9.15;5.60;;;23.90;57.40;;;;;;6191679;28;81529;-68
2023/06/06 12:48:09;;;;;;;11.82;5.88;;;24.00;57.20;;;;;;6199394;28;80501;-67
2023/06/06 12:51:10;;;;;;;8.57;5.38;;;24.00;57.20;;;;;;6192608;28;80946;-67
2023/06/06 12:54:10;;;;;;;9.02;5.13;;;24.00;57.90;;;;;;6195851;28;81854;-71
2023/06/06 12:57:11;;;;;;;8.75;5.22;;;24.00;57.60;;;;;;6191163;28;80722;-62
2023/06/06 13:00:13;;;;;;;8.57;4.93;;;24.00;57.90;;;;;;6193877;28;80922;-68
2023/06/06 13:03:15;;;;;;;11.30;5.22;;;24.00;58.00;;;;;;6192402;28;80966;-73
2023/06/06 13:06:15;;;;;;;8.70;5.00;;;24.00;58.00;;;;;;6200672;28;80800;-64
2023/06/06 13:09:17;;;;;;;28.92;16.23;;;24.00;58.60;;;;;;6195461;28;81452;-65
2023/06/06 13:12:18;;;;;;;211.02;115.15;;;24.00;58.30;;;;;;6192151;28;83901;-64
2023/06/06 13:15:18;;;;;;;255.75;140.18;;;24.00;58.40;;;;;;6179267;28;85828;-66
2023/06/06 13:18:19;;;;;;;310.20;160.77;;;24.00;58.40;;;;;;6182431;28;87147;-64
2023/06/06 13:21:19;;;;;;;206.65;116.65;;;24.00;58.80;;;;;;6194078;28;85626;-64
2023/06/06 13:24:20;;;;;;;161.88;89.70;;;24.00;59.20;;;;;;6195781;28;85904;-66
2023/06/06 13:27:21;;;;;;;134.45;68.95;;;24.10;59.30;;;;;;6200518;28;85392;-63
2023/06/06 13:30:23;;;;;;;108.05;59.35;;;24.10;59.40;;;;;;6190701;28;87818;-65
2023/06/06 13:33:24;;;;;;;104.85;56.78;;;24.10;59.40;;;;;;6182297;28;83917;-65
2023/06/06 13:36:25;;;;;;;92.65;51.65;;;24.10;59.50;;;;;;6189162;28;83301;-62
2023/06/06 13:39:26;;;;;;;95.65;54.42;;;24.20;59.50;;;;;;6185904;28;83810;-65
2023/06/06 13:42:26;;;;;;;76.30;41.55;;;24.20;59.30;;;;;;6185339;28;90029;-67
2023/06/06 13:45:27;;;;;;;78.53;42.20;;;24.20;59.30;;;;;;6197976;28;83122;-68
2023/06/06 13:48:27;;;;;;;60.50;33.80;;;24.20;59.30;;;;;;6197505;28;83512;-67
2023/06/06 13:51:28;;;;;;;59.45;35.13;;;24.20;59.60;;;;;;6201100;28;83117;-66
2023/06/06 13:54:29;;;;;;;63.75;33.78;;;24.30;59.30;;;;;;6198491;28;83270;-65
2023/06/06 13:57:29;;;;;;;57.42;29.25;;;24.30;59.30;;;;;;6199898;28;83196;-64
2023/06/06 14:00:30;;;;;;;52.90;29.05;;;24.30;59.40;;;;;;6199839;28;83891;-65
2023/06/06 14:03:31;;;;;;;52.92;29.42;;;24.30;59.60;;;;;;6197767;28;84064;-65
2023/06/06 14:06:33;;;;;;;41.13;24.33;;;24.30;59.60;;;;;;6197893;28;82748;-68
2023/06/06 14:09:34;;;;;;;41.15;24.42;;;24.30;59.50;;;;;;6198281;28;82633;-68
2023/06/06 14:12:34;;;;;;;42.80;23.48;;;24.30;59.40;;;;;;6196701;28;83144;-67
2023/06/06 14:15:35;;;;;;;40.88;23.15;;;24.30;59.20;;;;;;6180238;28;83212;-67
2023/06/06 14:18:35;;;;;;;45.50;21.92;;;24.30;59.00;;;;;;6173527;28;83655;-66
2023/06/06 14:24:39;;;;;;;35.63;18.45;;;24.30;58.90;;;;;;6173713;28;83462;-61
2023/06/06 14:27:40;;;;;;;27.52;16.02;;;24.30;58.70;;;;;;6186288;28;83282;-61
2023/06/06 14:30:41;;;;;;;32.90;17.55;;;24.30;58.90;;;;;;6182858;28;83636;-60
2023/06/06 14:33:41;;;;;;;30.75;17.15;;;24.30;58.60;;;;;;6176408;28;83174;-60
2023/06/06 14:36:42;;;;;;;24.65;14.75;;;24.30;59.00;;;;;;6191567;28;83237;-62
2023/06/06 14:39:42;;;;;;;29.15;15.52;;;24.20;59.00;;;;;;6182238;28;83304;-70
2023/06/06 14:42:43;;;;;;;30.58;15.38;;;24.20;58.80;;;;;;6187233;28;83550;-75
2023/06/06 14:45:43;;;;;;;23.13;13.80;;;24.30;58.80;;;;;;6182699;28;85566;-71
2023/06/06 14:48:45;;;;;;;29.52;14.80;;;24.30;58.70;;;;;;6191785;28;88359;-74
2023/06/06 14:51:46;;;;;;;29.95;15.10;;;24.30;58.80;;;;;;6193597;28;84472;-70
2023/06/06 14:54:47;;;;;;;24.42;13.63;;;24.20;58.70;;;;;;6189916;28;83523;-68
2023/06/06 14:57:48;;;;;;;24.92;13.82;;;24.30;58.90;;;;;;6192533;28;85370;-71
2023/06/06 15:00:49;;;;;;;29.33;13.98;;;24.30;58.90;;;;;;6179303;28;84429;-75
2023/06/06 15:03:52;;;;;;;22.10;13.50;;;24.20;59.00;;;;;;6183531;28;83310;-70
2023/06/06 15:06:52;;;;;;;23.65;12.82;;;24.30;59.00;;;;;;6183508;28;84512;-69
2023/06/06 15:09:53;;;;;;;26.00;14.35;;;24.30;59.00;;;;;;6190126;28;83401;-69
2023/06/06 15:12:53;;;;;;;19.20;12.02;;;24.30;59.00;;;;;;6200122;28;83666;-70
2023/06/06 15:15:54;;;;;;;27.73;12.63;;;24.30;59.00;;;;;;6199331;28;83538;-76
2023/06/06 15:18:55;;;;;;;19.00;12.82;;;24.30;59.00;;;;;;6199067;28;84129;-74
2023/06/06 15:21:58;;;;;;;26.13;12.73;;;24.40;59.00;;;;;;6199468;28;83685;-73
2023/06/06 15:24:59;;;;;;;19.75;11.88;;;24.40;58.90;;;;;;6188608;28;84959;-74
2023/06/06 15:27:59;;;;;;;23.60;12.00;;;24.30;58.50;;;;;;6191725;28;85399;-74
2023/06/06 15:31:00;;;;;;;21.70;12.35;;;24.30;58.60;;;;;;6190106;28;83228;-75
2023/06/06 15:34:00;;;;;;;23.58;11.57;;;24.30;58.50;;;;;;6193636;28;83077;-73
2023/06/06 15:37:01;;;;;;;18.65;11.23;;;24.40;58.50;;;;;;6194445;28;83718;-73